sensor_id;sensor_type;location;lat;lon;timestamp;P1;durP1;ratioP1;P2;durP2;ratioP2
20090;SDS011;10205;49.678;6.560;2022-12-11T00:01:17;20.00;;;14.50;;
20090;SDS011;10205;49.678;6.560;2022-12-11T00:03:48;19.20;;;14.43;;
20090;SDS011;10205;49.678;6.560;2022-12-11T00:06:17;18.50;;;13.93;;
20090;SDS011;10205;49.678;6.560;2022-12-11T00:08:49;18.47;;;14.53;;
20090;SDS011;10205;49.678;6.560;2022-12-11T00:11:22;22.30;;;13.97;;
20090;SDS011;10205;49.678;6.560;2022-12-11T00:13:50;22.40;;;13.33;;
20090;SDS011;10205;49.678;6.560;2022-12-11T00:16:20;22.10;;;14.33;;
20090;SDS011;10205;49.678;6.560;2022-12-11T00:18:49;20.63;;;15.17;;
20090;SDS011;10205;49.678;6.560;2022-12-11T00:21:19;22.43;;;16.27;;
20090;SDS011;10205;49.678;6.560;2022-12-11T00:23:49;21.33;;;14.77;;
20090;SDS011;10205;49.678;6.560;2022-12-11T00:26:17;21.37;;;15.90;;
20090;SDS011;10205;49.678;6.560;2022-12-11T00:28:50;23.23;;;14.90;;
20090;SDS011;10205;49.678;6.560;2022-12-11T00:31:21;23.17;;;13.80;;
20090;SDS011;10205;49.678;6.560;2022-12-11T00:33:51;24.63;;;15.60;;
20090;SDS011;10205;49.678;6.560;2022-12-11T00:36:22;28.73;;;15.20;;
20090;SDS011;10205;49.678;6.560;2022-12-11T00:38:54;20.40;;;14.50;;
20090;SDS011;10205;49.678;6.560;2022-12-11T00:41:24;23.57;;;16.63;;
20090;SDS011;10205;49.678;6.560;2022-12-11T00:43:55;24.90;;;14.93;;
20090;SDS011;10205;49.678;6.560;2022-12-11T00:46:24;25.03;;;13.83;;
20090;SDS011;10205;49.678;6.560;2022-12-11T00:48:52;21.87;;;13.33;;
20090;SDS011;10205;49.678;6.560;2022-12-11T00:51:21;20.50;;;12.63;;
20090;SDS011;10205;49.678;6.560;2022-12-11T00:53:48;22.53;;;14.53;;
20090;SDS011;10205;49.678;6.560;2022-12-11T00:56:18;20.37;;;13.63;;
20090;SDS011;10205;49.678;6.560;2022-12-11T00:58:49;23.57;;;14.00;;
20090;SDS011;10205;49.678;6.560;2022-12-11T01:01:20;20.43;;;13.00;;
20090;SDS011;10205;49.678;6.560;2022-12-11T01:03:52;24.33;;;14.47;;
20090;SDS011;10205;49.678;6.560;2022-12-11T01:06:22;21.70;;;13.63;;
20090;SDS011;10205;49.678;6.560;2022-12-11T01:08:55;23.37;;;14.77;;
20090;SDS011;10205;49.678;6.560;2022-12-11T01:11:41;21.23;;;14.47;;
20090;SDS011;10205;49.678;6.560;2022-12-11T01:14:12;22.67;;;15.17;;
20090;SDS011;10205;49.678;6.560;2022-12-11T01:16:42;21.90;;;15.37;;
20090;SDS011;10205;49.678;6.560;2022-12-11T01:19:09;21.90;;;15.80;;
20090;SDS011;10205;49.678;6.560;2022-12-11T01:21:36;24.30;;;14.30;;
20090;SDS011;10205;49.678;6.560;2022-12-11T01:24:06;20.97;;;15.10;;
20090;SDS011;10205;49.678;6.560;2022-12-11T01:26:34;20.20;;;14.40;;
20090;SDS011;10205;49.678;6.560;2022-12-11T01:29:03;19.77;;;14.10;;
20090;SDS011;10205;49.678;6.560;2022-12-11T01:31:31;19.33;;;14.40;;
20090;SDS011;10205;49.678;6.560;2022-12-11T01:33:59;19.63;;;12.87;;
20090;SDS011;10205;49.678;6.560;2022-12-11T01:36:28;20.07;;;12.47;;
20090;SDS011;10205;49.678;6.560;2022-12-11T01:38:56;33.23;;;17.77;;
20090;SDS011;10205;49.678;6.560;2022-12-11T01:41:24;32.10;;;16.60;;
20090;SDS011;10205;49.678;6.560;2022-12-11T01:43:59;25.00;;;15.27;;
20090;SDS011;10205;49.678;6.560;2022-12-11T01:46:35;22.80;;;13.23;;
20090;SDS011;10205;49.678;6.560;2022-12-11T01:49:06;24.33;;;14.10;;
20090;SDS011;10205;49.678;6.560;2022-12-11T01:51:38;20.03;;;12.80;;
20090;SDS011;10205;49.678;6.560;2022-12-11T01:54:12;22.80;;;14.10;;
20090;SDS011;10205;49.678;6.560;2022-12-11T01:56:49;20.20;;;13.17;;
20090;SDS011;10205;49.678;6.560;2022-12-11T01:59:32;24.33;;;14.27;;
20090;SDS011;10205;49.678;6.560;2022-12-11T02:02:11;20.73;;;13.80;;
20090;SDS011;10205;49.678;6.560;2022-12-11T02:04:46;22.97;;;16.83;;
20090;SDS011;10205;49.678;6.560;2022-12-11T02:07:14;21.70;;;15.33;;
20090;SDS011;10205;49.678;6.560;2022-12-11T02:09:50;19.97;;;14.60;;
20090;SDS011;10205;49.678;6.560;2022-12-11T02:12:22;20.20;;;12.17;;
20090;SDS011;10205;49.678;6.560;2022-12-11T02:15:08;21.87;;;13.10;;
20090;SDS011;10205;49.678;6.560;2022-12-11T02:17:49;26.10;;;15.27;;
20090;SDS011;10205;49.678;6.560;2022-12-11T02:20:25;23.30;;;13.40;;
20090;SDS011;10205;49.678;6.560;2022-12-11T02:23:07;20.87;;;13.33;;
20090;SDS011;10205;49.678;6.560;2022-12-11T02:26:18;20.60;;;12.37;;
20090;SDS011;10205;49.678;6.560;2022-12-11T02:29:04;24.33;;;13.70;;
20090;SDS011;10205;49.678;6.560;2022-12-11T02:31:38;19.43;;;12.87;;
20090;SDS011;10205;49.678;6.560;2022-12-11T02:34:13;20.97;;;13.87;;
20090;SDS011;10205;49.678;6.560;2022-12-11T02:36:48;25.03;;;13.97;;
20090;SDS011;10205;49.678;6.560;2022-12-11T02:39:21;24.67;;;14.50;;
20090;SDS011;10205;49.678;6.560;2022-12-11T02:41:51;24.47;;;14.03;;
20090;SDS011;10205;49.678;6.560;2022-12-11T02:44:23;23.97;;;13.60;;
20090;SDS011;10205;49.678;6.560;2022-12-11T02:46:56;25.40;;;14.60;;
20090;SDS011;10205;49.678;6.560;2022-12-11T02:49:26;23.57;;;13.30;;
20090;SDS011;10205;49.678;6.560;2022-12-11T02:51:55;23.63;;;14.17;;
20090;SDS011;10205;49.678;6.560;2022-12-11T02:54:26;22.80;;;13.20;;
20090;SDS011;10205;49.678;6.560;2022-12-11T02:57:02;21.17;;;12.77;;
20090;SDS011;10205;49.678;6.560;2022-12-11T02:59:37;21.27;;;13.03;;
20090;SDS011;10205;49.678;6.560;2022-12-11T03:02:09;23.43;;;13.90;;
20090;SDS011;10205;49.678;6.560;2022-12-11T03:04:40;20.60;;;12.97;;
20090;SDS011;10205;49.678;6.560;2022-12-11T03:07:12;20.47;;;11.93;;
20090;SDS011;10205;49.678;6.560;2022-12-11T03:09:48;22.07;;;13.13;;
20090;SDS011;10205;49.678;6.560;2022-12-11T03:12:21;22.90;;;13.37;;
20090;SDS011;10205;49.678;6.560;2022-12-11T03:14:59;22.30;;;12.53;;
20090;SDS011;10205;49.678;6.560;2022-12-11T03:17:32;23.37;;;13.63;;
20090;SDS011;10205;49.678;6.560;2022-12-11T03:20:06;23.23;;;13.93;;
20090;SDS011;10205;49.678;6.560;2022-12-11T03:22:49;22.53;;;12.83;;
20090;SDS011;10205;49.678;6.560;2022-12-11T03:25:29;21.17;;;11.83;;
20090;SDS011;10205;49.678;6.560;2022-12-11T03:28:05;20.73;;;13.03;;
20090;SDS011;10205;49.678;6.560;2022-12-11T03:30:48;20.33;;;13.37;;
20090;SDS011;10205;49.678;6.560;2022-12-11T03:33:30;20.47;;;13.90;;
20090;SDS011;10205;49.678;6.560;2022-12-11T03:36:05;20.87;;;14.30;;
20090;SDS011;10205;49.678;6.560;2022-12-11T03:38:39;23.07;;;13.00;;
20090;SDS011;10205;49.678;6.560;2022-12-11T03:41:14;25.13;;;14.47;;
20090;SDS011;10205;49.678;6.560;2022-12-11T03:43:45;23.10;;;13.10;;
20090;SDS011;10205;49.678;6.560;2022-12-11T03:46:19;18.43;;;11.70;;
20090;SDS011;10205;49.678;6.560;2022-12-11T03:48:53;21.17;;;12.83;;
20090;SDS011;10205;49.678;6.560;2022-12-11T03:51:28;26.47;;;14.73;;
20090;SDS011;10205;49.678;6.560;2022-12-11T03:53:57;23.37;;;13.40;;
20090;SDS011;10205;49.678;6.560;2022-12-11T03:56:27;22.73;;;13.67;;
20090;SDS011;10205;49.678;6.560;2022-12-11T03:59:00;22.60;;;13.13;;
20090;SDS011;10205;49.678;6.560;2022-12-11T04:01:29;23.23;;;14.10;;
20090;SDS011;10205;49.678;6.560;2022-12-11T04:04:00;23.17;;;14.50;;
20090;SDS011;10205;49.678;6.560;2022-12-11T04:06:28;20.20;;;12.27;;
20090;SDS011;10205;49.678;6.560;2022-12-11T04:08:55;21.33;;;12.53;;
20090;SDS011;10205;49.678;6.560;2022-12-11T04:11:22;25.00;;;13.63;;
20090;SDS011;10205;49.678;6.560;2022-12-11T04:14:04;28.17;;;14.90;;
20090;SDS011;10205;49.678;6.560;2022-12-11T04:16:54;24.63;;;14.00;;
20090;SDS011;10205;49.678;6.560;2022-12-11T04:19:23;24.80;;;13.70;;
20090;SDS011;10205;49.678;6.560;2022-12-11T04:22:10;25.10;;;13.90;;
20090;SDS011;10205;49.678;6.560;2022-12-11T04:24:56;26.53;;;14.03;;
20090;SDS011;10205;49.678;6.560;2022-12-11T04:27:25;25.73;;;13.60;;
20090;SDS011;10205;49.678;6.560;2022-12-11T04:30:12;21.17;;;13.17;;
20090;SDS011;10205;49.678;6.560;2022-12-11T04:32:46;23.43;;;13.60;;
20090;SDS011;10205;49.678;6.560;2022-12-11T04:35:14;20.57;;;12.23;;
20090;SDS011;10205;49.678;6.560;2022-12-11T04:37:43;23.23;;;13.03;;
20090;SDS011;10205;49.678;6.560;2022-12-11T04:40:19;23.33;;;13.17;;
20090;SDS011;10205;49.678;6.560;2022-12-11T04:42:47;23.73;;;14.10;;
20090;SDS011;10205;49.678;6.560;2022-12-11T04:45:15;20.27;;;13.40;;
20090;SDS011;10205;49.678;6.560;2022-12-11T04:47:43;23.13;;;13.33;;
20090;SDS011;10205;49.678;6.560;2022-12-11T04:50:15;23.50;;;13.03;;
20090;SDS011;10205;49.678;6.560;2022-12-11T04:52:45;18.97;;;12.00;;
20090;SDS011;10205;49.678;6.560;2022-12-11T04:55:13;20.63;;;12.07;;
20090;SDS011;10205;49.678;6.560;2022-12-11T04:57:42;19.23;;;12.67;;
20090;SDS011;10205;49.678;6.560;2022-12-11T05:00:11;17.47;;;11.80;;
20090;SDS011;10205;49.678;6.560;2022-12-11T05:02:41;20.80;;;12.00;;
20090;SDS011;10205;49.678;6.560;2022-12-11T05:05:10;20.40;;;11.70;;
20090;SDS011;10205;49.678;6.560;2022-12-11T05:07:48;19.50;;;11.80;;
20090;SDS011;10205;49.678;6.560;2022-12-11T05:10:17;18.43;;;11.07;;
20090;SDS011;10205;49.678;6.560;2022-12-11T05:12:46;20.23;;;12.00;;
20090;SDS011;10205;49.678;6.560;2022-12-11T05:15:13;19.17;;;11.17;;
20090;SDS011;10205;49.678;6.560;2022-12-11T05:17:42;18.33;;;11.70;;
20090;SDS011;10205;49.678;6.560;2022-12-11T05:20:10;17.40;;;11.10;;
20090;SDS011;10205;49.678;6.560;2022-12-11T05:22:43;20.07;;;11.47;;
20090;SDS011;10205;49.678;6.560;2022-12-11T05:25:18;19.37;;;11.23;;
20090;SDS011;10205;49.678;6.560;2022-12-11T05:27:47;15.97;;;10.90;;
20090;SDS011;10205;49.678;6.560;2022-12-11T05:30:14;17.97;;;10.57;;
20090;SDS011;10205;49.678;6.560;2022-12-11T05:32:43;17.57;;;11.20;;
20090;SDS011;10205;49.678;6.560;2022-12-11T05:35:14;17.37;;;10.40;;
20090;SDS011;10205;49.678;6.560;2022-12-11T05:37:41;19.20;;;11.13;;
20090;SDS011;10205;49.678;6.560;2022-12-11T05:40:10;18.00;;;11.17;;
20090;SDS011;10205;49.678;6.560;2022-12-11T05:42:44;17.37;;;10.33;;
20090;SDS011;10205;49.678;6.560;2022-12-11T05:45:12;17.30;;;10.43;;
20090;SDS011;10205;49.678;6.560;2022-12-11T05:47:40;17.47;;;10.03;;
20090;SDS011;10205;49.678;6.560;2022-12-11T05:50:10;20.83;;;10.97;;
20090;SDS011;10205;49.678;6.560;2022-12-11T05:52:43;17.73;;;10.23;;
20090;SDS011;10205;49.678;6.560;2022-12-11T05:55:16;15.70;;;9.20;;
20090;SDS011;10205;49.678;6.560;2022-12-11T05:57:44;15.63;;;9.83;;
20090;SDS011;10205;49.678;6.560;2022-12-11T06:00:13;15.53;;;10.10;;
20090;SDS011;10205;49.678;6.560;2022-12-11T06:02:41;15.17;;;11.00;;
20090;SDS011;10205;49.678;6.560;2022-12-11T06:05:11;16.80;;;10.17;;
20090;SDS011;10205;49.678;6.560;2022-12-11T06:07:42;16.10;;;9.87;;
20090;SDS011;10205;49.678;6.560;2022-12-11T06:10:11;16.73;;;9.90;;
20090;SDS011;10205;49.678;6.560;2022-12-11T06:12:43;14.60;;;9.40;;
20090;SDS011;10205;49.678;6.560;2022-12-11T06:15:15;17.40;;;10.30;;
20090;SDS011;10205;49.678;6.560;2022-12-11T06:17:43;15.97;;;9.97;;
20090;SDS011;10205;49.678;6.560;2022-12-11T06:20:12;14.40;;;8.87;;
20090;SDS011;10205;49.678;6.560;2022-12-11T06:22:43;17.83;;;9.90;;
20090;SDS011;10205;49.678;6.560;2022-12-11T06:25:11;14.33;;;9.97;;
20090;SDS011;10205;49.678;6.560;2022-12-11T06:27:44;14.27;;;8.93;;
20090;SDS011;10205;49.678;6.560;2022-12-11T06:30:12;15.10;;;9.60;;
20090;SDS011;10205;49.678;6.560;2022-12-11T06:32:43;17.17;;;10.60;;
20090;SDS011;10205;49.678;6.560;2022-12-11T06:35:11;16.33;;;9.43;;
20090;SDS011;10205;49.678;6.560;2022-12-11T06:37:45;14.47;;;8.77;;
20090;SDS011;10205;49.678;6.560;2022-12-11T06:40:12;15.90;;;9.73;;
20090;SDS011;10205;49.678;6.560;2022-12-11T06:42:42;15.03;;;8.80;;
20090;SDS011;10205;49.678;6.560;2022-12-11T06:45:10;15.77;;;9.37;;
20090;SDS011;10205;49.678;6.560;2022-12-11T06:47:38;15.20;;;9.10;;
20090;SDS011;10205;49.678;6.560;2022-12-11T06:50:08;14.37;;;8.90;;
20090;SDS011;10205;49.678;6.560;2022-12-11T06:52:37;12.73;;;9.10;;
20090;SDS011;10205;49.678;6.560;2022-12-11T06:55:08;13.13;;;8.57;;
20090;SDS011;10205;49.678;6.560;2022-12-11T06:57:37;12.03;;;8.17;;
20090;SDS011;10205;49.678;6.560;2022-12-11T07:00:07;15.67;;;9.30;;
20090;SDS011;10205;49.678;6.560;2022-12-11T07:02:37;14.07;;;9.10;;
20090;SDS011;10205;49.678;6.560;2022-12-11T07:05:06;14.67;;;9.50;;
20090;SDS011;10205;49.678;6.560;2022-12-11T07:07:34;12.83;;;8.63;;
20090;SDS011;10205;49.678;6.560;2022-12-11T07:10:03;14.50;;;8.93;;
20090;SDS011;10205;49.678;6.560;2022-12-11T07:12:33;14.17;;;8.47;;
20090;SDS011;10205;49.678;6.560;2022-12-11T07:15:02;12.50;;;7.97;;
20090;SDS011;10205;49.678;6.560;2022-12-11T07:17:34;12.23;;;7.97;;
20090;SDS011;10205;49.678;6.560;2022-12-11T07:20:01;13.43;;;8.27;;
20090;SDS011;10205;49.678;6.560;2022-12-11T07:22:30;13.57;;;8.10;;
20090;SDS011;10205;49.678;6.560;2022-12-11T07:24:57;14.13;;;8.23;;
20090;SDS011;10205;49.678;6.560;2022-12-11T07:27:25;12.63;;;8.70;;
20090;SDS011;10205;49.678;6.560;2022-12-11T07:29:57;11.87;;;7.77;;
20090;SDS011;10205;49.678;6.560;2022-12-11T07:32:27;12.77;;;7.57;;
20090;SDS011;10205;49.678;6.560;2022-12-11T07:34:55;15.27;;;8.10;;
20090;SDS011;10205;49.678;6.560;2022-12-11T07:37:24;14.27;;;8.33;;
20090;SDS011;10205;49.678;6.560;2022-12-11T07:39:52;13.07;;;8.10;;
20090;SDS011;10205;49.678;6.560;2022-12-11T07:42:20;11.17;;;7.70;;
20090;SDS011;10205;49.678;6.560;2022-12-11T07:44:49;12.00;;;7.77;;
20090;SDS011;10205;49.678;6.560;2022-12-11T07:47:23;14.60;;;7.80;;
20090;SDS011;10205;49.678;6.560;2022-12-11T07:49:52;15.03;;;8.47;;
20090;SDS011;10205;49.678;6.560;2022-12-11T07:52:25;12.80;;;7.80;;
20090;SDS011;10205;49.678;6.560;2022-12-11T07:54:52;15.50;;;8.30;;
20090;SDS011;10205;49.678;6.560;2022-12-11T07:57:20;14.93;;;9.10;;
20090;SDS011;10205;49.678;6.560;2022-12-11T07:59:48;13.77;;;8.70;;
20090;SDS011;10205;49.678;6.560;2022-12-11T08:02:16;14.00;;;8.23;;
20090;SDS011;10205;49.678;6.560;2022-12-11T08:04:46;17.73;;;8.83;;
20090;SDS011;10205;49.678;6.560;2022-12-11T08:07:17;15.47;;;8.37;;
20090;SDS011;10205;49.678;6.560;2022-12-11T08:09:46;11.53;;;7.47;;
20090;SDS011;10205;49.678;6.560;2022-12-11T08:12:18;14.57;;;8.53;;
20090;SDS011;10205;49.678;6.560;2022-12-11T08:14:45;12.30;;;7.57;;
20090;SDS011;10205;49.678;6.560;2022-12-11T08:17:13;16.13;;;9.47;;
20090;SDS011;10205;49.678;6.560;2022-12-11T08:19:46;11.77;;;7.70;;
20090;SDS011;10205;49.678;6.560;2022-12-11T08:22:16;16.00;;;9.27;;
20090;SDS011;10205;49.678;6.560;2022-12-11T08:24:43;14.20;;;8.20;;
20090;SDS011;10205;49.678;6.560;2022-12-11T08:27:15;13.97;;;8.23;;
20090;SDS011;10205;49.678;6.560;2022-12-11T08:29:43;15.37;;;8.70;;
20090;SDS011;10205;49.678;6.560;2022-12-11T08:32:11;13.47;;;8.20;;
20090;SDS011;10205;49.678;6.560;2022-12-11T08:34:42;14.27;;;9.17;;
20090;SDS011;10205;49.678;6.560;2022-12-11T08:37:11;12.97;;;8.23;;
20090;SDS011;10205;49.678;6.560;2022-12-11T08:39:40;15.30;;;8.77;;
20090;SDS011;10205;49.678;6.560;2022-12-11T08:42:10;14.63;;;8.50;;
20090;SDS011;10205;49.678;6.560;2022-12-11T08:44:41;14.40;;;8.20;;
20090;SDS011;10205;49.678;6.560;2022-12-11T08:47:10;15.60;;;8.80;;
20090;SDS011;10205;49.678;6.560;2022-12-11T08:49:42;13.93;;;8.40;;
20090;SDS011;10205;49.678;6.560;2022-12-11T08:52:12;14.87;;;8.87;;
20090;SDS011;10205;49.678;6.560;2022-12-11T08:54:41;13.70;;;8.50;;
20090;SDS011;10205;49.678;6.560;2022-12-11T08:57:08;17.70;;;8.93;;
20090;SDS011;10205;49.678;6.560;2022-12-11T08:59:38;16.97;;;9.07;;
20090;SDS011;10205;49.678;6.560;2022-12-11T09:02:05;16.30;;;9.50;;
20090;SDS011;10205;49.678;6.560;2022-12-11T09:04:38;16.03;;;9.13;;
20090;SDS011;10205;49.678;6.560;2022-12-11T09:07:06;13.00;;;8.30;;
20090;SDS011;10205;49.678;6.560;2022-12-11T09:09:35;18.30;;;8.97;;
20090;SDS011;10205;49.678;6.560;2022-12-11T09:12:04;16.23;;;9.53;;
20090;SDS011;10205;49.678;6.560;2022-12-11T09:14:32;16.37;;;9.07;;
20090;SDS011;10205;49.678;6.560;2022-12-11T09:17:00;16.10;;;8.77;;
20090;SDS011;10205;49.678;6.560;2022-12-11T09:19:29;12.70;;;8.10;;
20090;SDS011;10205;49.678;6.560;2022-12-11T09:21:58;15.37;;;8.43;;
20090;SDS011;10205;49.678;6.560;2022-12-11T09:24:26;15.07;;;8.90;;
20090;SDS011;10205;49.678;6.560;2022-12-11T09:26:57;13.77;;;8.60;;
20090;SDS011;10205;49.678;6.560;2022-12-11T09:29:25;15.03;;;9.33;;
20090;SDS011;10205;49.678;6.560;2022-12-11T09:31:54;14.83;;;9.17;;
20090;SDS011;10205;49.678;6.560;2022-12-11T09:34:22;14.50;;;8.27;;
20090;SDS011;10205;49.678;6.560;2022-12-11T09:36:51;17.87;;;8.67;;
20090;SDS011;10205;49.678;6.560;2022-12-11T09:39:18;15.47;;;8.77;;
20090;SDS011;10205;49.678;6.560;2022-12-11T09:41:48;17.20;;;8.70;;
20090;SDS011;10205;49.678;6.560;2022-12-11T09:44:31;16.90;;;9.23;;
20090;SDS011;10205;49.678;6.560;2022-12-11T09:47:13;16.00;;;9.37;;
20090;SDS011;10205;49.678;6.560;2022-12-11T09:49:49;16.00;;;9.10;;
20090;SDS011;10205;49.678;6.560;2022-12-11T09:52:31;14.77;;;8.20;;
20090;SDS011;10205;49.678;6.560;2022-12-11T09:55:09;16.03;;;8.80;;
20090;SDS011;10205;49.678;6.560;2022-12-11T09:57:45;15.57;;;8.60;;
20090;SDS011;10205;49.678;6.560;2022-12-11T10:00:27;13.93;;;8.20;;
20090;SDS011;10205;49.678;6.560;2022-12-11T10:03:16;11.73;;;7.37;;
20090;SDS011;10205;49.678;6.560;2022-12-11T10:06:15;15.17;;;8.47;;
20090;SDS011;10205;49.678;6.560;2022-12-11T10:08:54;14.53;;;8.70;;
20090;SDS011;10205;49.678;6.560;2022-12-11T10:11:41;14.43;;;8.33;;
20090;SDS011;10205;49.678;6.560;2022-12-11T10:14:27;13.43;;;7.80;;
20090;SDS011;10205;49.678;6.560;2022-12-11T10:17:26;14.93;;;8.57;;
20090;SDS011;10205;49.678;6.560;2022-12-11T10:19:57;14.83;;;8.10;;
20090;SDS011;10205;49.678;6.560;2022-12-11T10:22:41;13.03;;;7.87;;
20090;SDS011;10205;49.678;6.560;2022-12-11T10:25:13;14.10;;;7.67;;
20090;SDS011;10205;49.678;6.560;2022-12-11T10:27:47;13.87;;;7.97;;
20090;SDS011;10205;49.678;6.560;2022-12-11T10:30:15;12.73;;;8.30;;
20090;SDS011;10205;49.678;6.560;2022-12-11T10:32:51;15.00;;;8.60;;
20090;SDS011;10205;49.678;6.560;2022-12-11T10:35:30;14.00;;;8.27;;
20090;SDS011;10205;49.678;6.560;2022-12-11T10:38:12;13.80;;;8.43;;
20090;SDS011;10205;49.678;6.560;2022-12-11T10:40:48;15.93;;;8.57;;
20090;SDS011;10205;49.678;6.560;2022-12-11T10:43:30;13.17;;;8.23;;
20090;SDS011;10205;49.678;6.560;2022-12-11T10:46:00;13.90;;;8.37;;
20090;SDS011;10205;49.678;6.560;2022-12-11T10:48:29;13.53;;;8.23;;
20090;SDS011;10205;49.678;6.560;2022-12-11T10:50:57;13.43;;;7.70;;
20090;SDS011;10205;49.678;6.560;2022-12-11T10:53:29;14.30;;;8.80;;
20090;SDS011;10205;49.678;6.560;2022-12-11T10:56:01;13.57;;;8.43;;
20090;SDS011;10205;49.678;6.560;2022-12-11T10:58:30;17.27;;;8.93;;
20090;SDS011;10205;49.678;6.560;2022-12-11T11:01:04;12.17;;;8.10;;
20090;SDS011;10205;49.678;6.560;2022-12-11T11:03:42;13.57;;;7.60;;
20090;SDS011;10205;49.678;6.560;2022-12-11T11:06:22;15.07;;;8.97;;
20090;SDS011;10205;49.678;6.560;2022-12-11T11:08:52;15.57;;;8.03;;
20090;SDS011;10205;49.678;6.560;2022-12-11T11:11:23;13.90;;;8.17;;
20090;SDS011;10205;49.678;6.560;2022-12-11T11:14:03;15.20;;;9.17;;
20090;SDS011;10205;49.678;6.560;2022-12-11T11:16:34;12.20;;;8.30;;
20090;SDS011;10205;49.678;6.560;2022-12-11T11:19:05;14.50;;;8.00;;
20090;SDS011;10205;49.678;6.560;2022-12-11T11:21:45;16.23;;;8.77;;
20090;SDS011;10205;49.678;6.560;2022-12-11T11:24:23;10.13;;;7.50;;
20090;SDS011;10205;49.678;6.560;2022-12-11T11:26:55;12.17;;;8.10;;
20090;SDS011;10205;49.678;6.560;2022-12-11T11:29:28;12.53;;;7.80;;
20090;SDS011;10205;49.678;6.560;2022-12-11T11:31:59;13.27;;;7.73;;
20090;SDS011;10205;49.678;6.560;2022-12-11T11:34:43;14.67;;;7.87;;
20090;SDS011;10205;49.678;6.560;2022-12-11T11:37:20;14.67;;;8.40;;
20090;SDS011;10205;49.678;6.560;2022-12-11T11:39:54;15.30;;;8.80;;
20090;SDS011;10205;49.678;6.560;2022-12-11T11:42:34;15.20;;;8.63;;
20090;SDS011;10205;49.678;6.560;2022-12-11T11:45:11;14.60;;;8.17;;
20090;SDS011;10205;49.678;6.560;2022-12-11T11:47:44;13.43;;;8.13;;
20090;SDS011;10205;49.678;6.560;2022-12-11T11:50:26;16.33;;;9.07;;
20090;SDS011;10205;49.678;6.560;2022-12-11T11:53:02;12.33;;;7.97;;
20090;SDS011;10205;49.678;6.560;2022-12-11T11:55:39;13.80;;;8.17;;
20090;SDS011;10205;49.678;6.560;2022-12-11T11:58:17;14.70;;;9.10;;
20090;SDS011;10205;49.678;6.560;2022-12-11T12:00:52;12.60;;;8.27;;
20090;SDS011;10205;49.678;6.560;2022-12-11T12:03:20;15.23;;;8.53;;
20090;SDS011;10205;49.678;6.560;2022-12-11T12:05:53;12.77;;;7.90;;
20090;SDS011;10205;49.678;6.560;2022-12-11T12:08:31;15.30;;;8.70;;
20090;SDS011;10205;49.678;6.560;2022-12-11T12:11:12;15.27;;;8.77;;
20090;SDS011;10205;49.678;6.560;2022-12-11T12:13:57;15.37;;;9.13;;
20090;SDS011;10205;49.678;6.560;2022-12-11T12:16:39;15.03;;;8.73;;
20090;SDS011;10205;49.678;6.560;2022-12-11T12:19:29;14.77;;;8.53;;
20090;SDS011;10205;49.678;6.560;2022-12-11T12:22:37;15.10;;;7.90;;
20090;SDS011;10205;49.678;6.560;2022-12-11T12:25:25;13.17;;;8.53;;
20090;SDS011;10205;49.678;6.560;2022-12-11T12:28:03;12.70;;;8.30;;
20090;SDS011;10205;49.678;6.560;2022-12-11T12:30:47;13.13;;;7.77;;
20090;SDS011;10205;49.678;6.560;2022-12-11T12:33:34;12.50;;;8.03;;
20090;SDS011;10205;49.678;6.560;2022-12-11T12:36:19;11.80;;;7.67;;
20090;SDS011;10205;49.678;6.560;2022-12-11T12:38:59;13.00;;;8.30;;
20090;SDS011;10205;49.678;6.560;2022-12-11T12:41:34;12.60;;;7.50;;
20090;SDS011;10205;49.678;6.560;2022-12-11T12:44:12;14.30;;;8.77;;
20090;SDS011;10205;49.678;6.560;2022-12-11T12:46:52;12.20;;;7.93;;
20090;SDS011;10205;49.678;6.560;2022-12-11T12:49:31;11.93;;;7.17;;
20090;SDS011;10205;49.678;6.560;2022-12-11T12:52:05;12.40;;;8.17;;
20090;SDS011;10205;49.678;6.560;2022-12-11T12:54:43;11.77;;;7.43;;
20090;SDS011;10205;49.678;6.560;2022-12-11T12:57:29;12.43;;;8.07;;
20090;SDS011;10205;49.678;6.560;2022-12-11T12:59:59;13.97;;;8.27;;
20090;SDS011;10205;49.678;6.560;2022-12-11T13:02:26;11.67;;;7.90;;
20090;SDS011;10205;49.678;6.560;2022-12-11T13:04:57;12.73;;;7.97;;
20090;SDS011;10205;49.678;6.560;2022-12-11T13:07:30;15.63;;;8.53;;
20090;SDS011;10205;49.678;6.560;2022-12-11T13:10:02;12.80;;;8.37;;
20090;SDS011;10205;49.678;6.560;2022-12-11T13:12:48;13.07;;;8.23;;
20090;SDS011;10205;49.678;6.560;2022-12-11T13:15:25;10.80;;;7.47;;
20090;SDS011;10205;49.678;6.560;2022-12-11T13:17:58;11.30;;;7.10;;
20090;SDS011;10205;49.678;6.560;2022-12-11T13:20:28;11.07;;;7.70;;
20090;SDS011;10205;49.678;6.560;2022-12-11T13:23:09;11.13;;;7.60;;
20090;SDS011;10205;49.678;6.560;2022-12-11T13:25:59;13.53;;;8.23;;
20090;SDS011;10205;49.678;6.560;2022-12-11T13:28:32;14.60;;;8.23;;
20090;SDS011;10205;49.678;6.560;2022-12-11T13:31:25;12.43;;;8.00;;
20090;SDS011;10205;49.678;6.560;2022-12-11T13:34:05;15.23;;;8.33;;
20090;SDS011;10205;49.678;6.560;2022-12-11T13:36:44;12.17;;;7.60;;
20090;SDS011;10205;49.678;6.560;2022-12-11T13:39:16;12.67;;;8.40;;
20090;SDS011;10205;49.678;6.560;2022-12-11T13:41:51;12.20;;;7.93;;
20090;SDS011;10205;49.678;6.560;2022-12-11T13:44:24;12.00;;;7.47;;
20090;SDS011;10205;49.678;6.560;2022-12-11T13:46:55;13.03;;;7.93;;
20090;SDS011;10205;49.678;6.560;2022-12-11T13:49:26;12.60;;;8.43;;
20090;SDS011;10205;49.678;6.560;2022-12-11T13:52:00;12.50;;;8.43;;
20090;SDS011;10205;49.678;6.560;2022-12-11T13:54:29;16.07;;;8.20;;
20090;SDS011;10205;49.678;6.560;2022-12-11T13:57:03;11.63;;;7.80;;
20090;SDS011;10205;49.678;6.560;2022-12-11T13:59:47;11.17;;;7.50;;
20090;SDS011;10205;49.678;6.560;2022-12-11T14:02:18;12.63;;;8.27;;
20090;SDS011;10205;49.678;6.560;2022-12-11T14:04:51;15.27;;;8.53;;
20090;SDS011;10205;49.678;6.560;2022-12-11T14:07:22;12.53;;;8.10;;
20090;SDS011;10205;49.678;6.560;2022-12-11T14:09:54;14.30;;;8.23;;
20090;SDS011;10205;49.678;6.560;2022-12-11T14:12:31;12.73;;;8.60;;
20090;SDS011;10205;49.678;6.560;2022-12-11T14:14:59;15.03;;;9.13;;
20090;SDS011;10205;49.678;6.560;2022-12-11T14:17:30;12.27;;;8.70;;
20090;SDS011;10205;49.678;6.560;2022-12-11T14:20:00;13.10;;;8.03;;
20090;SDS011;10205;49.678;6.560;2022-12-11T14:22:32;13.87;;;8.97;;
20090;SDS011;10205;49.678;6.560;2022-12-11T14:24:59;14.27;;;8.30;;
20090;SDS011;10205;49.678;6.560;2022-12-11T14:27:47;10.77;;;7.10;;
20090;SDS011;10205;49.678;6.560;2022-12-11T14:30:19;14.67;;;8.63;;
20090;SDS011;10205;49.678;6.560;2022-12-11T14:32:49;14.93;;;9.03;;
20090;SDS011;10205;49.678;6.560;2022-12-11T14:35:23;13.60;;;8.40;;
20090;SDS011;10205;49.678;6.560;2022-12-11T14:37:54;13.20;;;8.07;;
20090;SDS011;10205;49.678;6.560;2022-12-11T14:40:26;15.40;;;8.53;;
20090;SDS011;10205;49.678;6.560;2022-12-11T14:43:02;16.50;;;9.93;;
20090;SDS011;10205;49.678;6.560;2022-12-11T14:45:36;14.90;;;9.00;;
20090;SDS011;10205;49.678;6.560;2022-12-11T14:48:09;15.37;;;9.10;;
20090;SDS011;10205;49.678;6.560;2022-12-11T14:50:44;16.13;;;9.03;;
20090;SDS011;10205;49.678;6.560;2022-12-11T14:53:18;13.23;;;8.20;;
20090;SDS011;10205;49.678;6.560;2022-12-11T14:55:52;16.27;;;8.80;;
20090;SDS011;10205;49.678;6.560;2022-12-11T14:58:23;14.83;;;9.30;;
20090;SDS011;10205;49.678;6.560;2022-12-11T15:00:56;14.03;;;8.70;;
20090;SDS011;10205;49.678;6.560;2022-12-11T15:03:29;13.40;;;8.60;;